sensor_id;sensor_type;location;lat;lon;timestamp;pressure;altitude;pressure_sealevel;temperature;humidity
64687;BME280;51113;53.646;-113.674;2024-03-25T00:00:30;93315.94;;;-2.61;70.11
64687;BME280;51113;53.646;-113.674;2024-03-25T00:02:57;93315.59;;;-2.44;70.28
64687;BME280;51113;53.646;-113.674;2024-03-25T00:05:24;93313.81;;;-2.50;69.49
64687;BME280;51113;53.646;-113.674;2024-03-25T00:07:52;93319.28;;;-2.53;69.72
64687;BME280;51113;53.646;-113.674;2024-03-25T00:10:18;93318.13;;;-2.51;69.98
64687;BME280;51113;53.646;-113.674;2024-03-25T00:12:47;93317.88;;;-2.63;69.68
64687;BME280;51113;53.646;-113.674;2024-03-25T00:15:19;93314.50;;;-2.70;70.06
64687;BME280;51113;53.646;-113.674;2024-03-25T00:17:47;93313.09;;;-2.79;70.01
64687;BME280;51113;53.646;-113.674;2024-03-25T00:20:13;93314.84;;;-2.79;69.32
64687;BME280;51113;53.646;-113.674;2024-03-25T00:22:41;93307.38;;;-2.87;69.10
64687;BME280;51113;53.646;-113.674;2024-03-25T00:25:08;93309.56;;;-2.84;69.59
64687;BME280;51113;53.646;-113.674;2024-03-25T00:27:35;93309.69;;;-2.92;69.42
64687;BME280;51113;53.646;-113.674;2024-03-25T00:30:02;93310.25;;;-2.97;69.96
64687;BME280;51113;53.646;-113.674;2024-03-25T00:32:28;93308.69;;;-2.98;69.78
64687;BME280;51113;53.646;-113.674;2024-03-25T00:34:55;93315.56;;;-2.92;71.61
64687;BME280;51113;53.646;-113.674;2024-03-25T00:37:22;93304.06;;;-2.88;70.23
64687;BME280;51113;53.646;-113.674;2024-03-25T00:39:48;93306.81;;;-2.83;70.57
64687;BME280;51113;53.646;-113.674;2024-03-25T00:42:15;93299.38;;;-2.84;70.61
64687;BME280;51113;53.646;-113.674;2024-03-25T00:44:42;93302.69;;;-2.90;70.97
64687;BME280;51113;53.646;-113.674;2024-03-25T00:47:08;93290.16;;;-2.92;71.56
64687;BME280;51113;53.646;-113.674;2024-03-25T00:49:35;93290.91;;;-2.98;71.51
64687;BME280;51113;53.646;-113.674;2024-03-25T00:52:02;93300.66;;;-3.02;71.06
64687;BME280;51113;53.646;-113.674;2024-03-25T00:54:28;93297.13;;;-3.07;70.94
64687;BME280;51113;53.646;-113.674;2024-03-25T00:56:55;93297.31;;;-3.09;73.00
64687;BME280;51113;53.646;-113.674;2024-03-25T00:59:21;93298.09;;;-3.08;71.92
64687;BME280;51113;53.646;-113.674;2024-03-25T01:01:48;93300.59;;;-3.15;71.54
64687;BME280;51113;53.646;-113.674;2024-03-25T01:04:14;93303.53;;;-3.11;72.34
64687;BME280;51113;53.646;-113.674;2024-03-25T01:06:41;93302.34;;;-3.15;72.65
64687;BME280;51113;53.646;-113.674;2024-03-25T01:09:08;93305.38;;;-3.27;72.62
64687;BME280;51113;53.646;-113.674;2024-03-25T01:11:36;93307.91;;;-3.27;72.03
64687;BME280;51113;53.646;-113.674;2024-03-25T01:14:02;93305.94;;;-3.31;72.49
64687;BME280;51113;53.646;-113.674;2024-03-25T01:16:29;93303.91;;;-3.42;71.58
64687;BME280;51113;53.646;-113.674;2024-03-25T01:18:56;93305.06;;;-3.45;72.19
64687;BME280;51113;53.646;-113.674;2024-03-25T01:21:22;93312.56;;;-3.58;72.42
64687;BME280;51113;53.646;-113.674;2024-03-25T01:23:49;93306.41;;;-3.70;73.41
64687;BME280;51113;53.646;-113.674;2024-03-25T01:26:16;93304.66;;;-3.70;73.31
64687;BME280;51113;53.646;-113.674;2024-03-25T01:28:43;93296.22;;;-3.77;73.50
64687;BME280;51113;53.646;-113.674;2024-03-25T01:31:09;93298.28;;;-3.87;74.68
64687;BME280;51113;53.646;-113.674;2024-03-25T01:33:36;93299.19;;;-3.95;75.03
64687;BME280;51113;53.646;-113.674;2024-03-25T01:36:03;93304.19;;;-4.01;74.61
64687;BME280;51113;53.646;-113.674;2024-03-25T01:38:30;93303.56;;;-4.03;73.97
64687;BME280;51113;53.646;-113.674;2024-03-25T01:41:10;93307.56;;;-4.15;74.90
64687;BME280;51113;53.646;-113.674;2024-03-25T01:43:37;93319.00;;;-4.19;74.92
64687;BME280;51113;53.646;-113.674;2024-03-25T01:46:04;93318.94;;;-4.26;75.04
64687;BME280;51113;53.646;-113.674;2024-03-25T01:48:31;93282.22;;;-4.51;75.90
64687;BME280;51113;53.646;-113.674;2024-03-25T01:50:58;93308.91;;;-4.34;75.91
64687;BME280;51113;53.646;-113.674;2024-03-25T01:53:28;93309.53;;;-4.32;75.70
64687;BME280;51113;53.646;-113.674;2024-03-25T01:55:55;93310.84;;;-4.36;76.68
64687;BME280;51113;53.646;-113.674;2024-03-25T01:58:23;93314.34;;;-4.37;76.32
64687;BME280;51113;53.646;-113.674;2024-03-25T02:00:53;93320.97;;;-4.36;77.22
64687;BME280;51113;53.646;-113.674;2024-03-25T02:03:21;93322.38;;;-4.34;77.17
64687;BME280;51113;53.646;-113.674;2024-03-25T02:05:55;93325.50;;;-4.32;77.65
64687;BME280;51113;53.646;-113.674;2024-03-25T02:08:22;93320.69;;;-4.27;77.90
64687;BME280;51113;53.646;-113.674;2024-03-25T02:10:49;93323.84;;;-4.25;77.91
64687;BME280;51113;53.646;-113.674;2024-03-25T02:13:16;93325.81;;;-4.20;78.35
64687;BME280;51113;53.646;-113.674;2024-03-25T02:15:43;93316.13;;;-4.16;77.97
64687;BME280;51113;53.646;-113.674;2024-03-25T02:18:10;93325.72;;;-4.12;78.66
64687;BME280;51113;53.646;-113.674;2024-03-25T02:20:36;93322.41;;;-4.12;78.69
64687;BME280;51113;53.646;-113.674;2024-03-25T02:23:03;93327.09;;;-4.09;76.99
64687;BME280;51113;53.646;-113.674;2024-03-25T02:25:32;93325.53;;;-4.10;77.01
64687;BME280;51113;53.646;-113.674;2024-03-25T02:27:59;93327.47;;;-4.12;76.36
64687;BME280;51113;53.646;-113.674;2024-03-25T02:30:25;93323.19;;;-4.12;75.51
64687;BME280;51113;53.646;-113.674;2024-03-25T02:32:52;93324.69;;;-4.17;76.44
64687;BME280;51113;53.646;-113.674;2024-03-25T02:35:18;93326.00;;;-4.21;75.75
64687;BME280;51113;53.646;-113.674;2024-03-25T02:37:46;93322.69;;;-4.22;76.64
64687;BME280;51113;53.646;-113.674;2024-03-25T02:40:12;93322.44;;;-4.27;76.40
64687;BME280;51113;53.646;-113.674;2024-03-25T02:42:39;93320.69;;;-4.27;76.38
64687;BME280;51113;53.646;-113.674;2024-03-25T02:45:06;93329.25;;;-4.28;76.42
64687;BME280;51113;53.646;-113.674;2024-03-25T02:47:33;93317.66;;;-4.37;77.29
64687;BME280;51113;53.646;-113.674;2024-03-25T02:49:59;93329.97;;;-4.34;77.60
64687;BME280;51113;53.646;-113.674;2024-03-25T02:52:26;93327.59;;;-4.35;77.61
64687;BME280;51113;53.646;-113.674;2024-03-25T02:54:53;93319.16;;;-4.42;77.38
64687;BME280;51113;53.646;-113.674;2024-03-25T02:57:22;93323.97;;;-4.47;76.73
64687;BME280;51113;53.646;-113.674;2024-03-25T02:59:49;93322.41;;;-4.48;77.51
64687;BME280;51113;53.646;-113.674;2024-03-25T03:02:15;93329.13;;;-4.56;77.64
64687;BME280;51113;53.646;-113.674;2024-03-25T03:04:42;93328.94;;;-4.54;77.43
64687;BME280;51113;53.646;-113.674;2024-03-25T03:07:08;93326.59;;;-4.56;78.21
64687;BME280;51113;53.646;-113.674;2024-03-25T03:09:35;93319.97;;;-4.57;78.29
64687;BME280;51113;53.646;-113.674;2024-03-25T03:12:01;93326.59;;;-4.56;78.40
64687;BME280;51113;53.646;-113.674;2024-03-25T03:14:28;93328.44;;;-4.64;79.24
64687;BME280;51113;53.646;-113.674;2024-03-25T03:16:54;93330.63;;;-4.61;78.43
64687;BME280;51113;53.646;-113.674;2024-03-25T03:19:27;93332.97;;;-4.60;78.13
64687;BME280;51113;53.646;-113.674;2024-03-25T03:21:55;93329.41;;;-4.65;77.75
64687;BME280;51113;53.646;-113.674;2024-03-25T03:24:21;93334.28;;;-4.64;78.24
64687;BME280;51113;53.646;-113.674;2024-03-25T03:26:49;93326.09;;;-4.66;79.38
64687;BME280;51113;53.646;-113.674;2024-03-25T03:29:16;93333.06;;;-4.68;78.83
64687;BME280;51113;53.646;-113.674;2024-03-25T03:31:43;93336.56;;;-4.69;78.00
64687;BME280;51113;53.646;-113.674;2024-03-25T03:34:10;93329.66;;;-4.75;78.16
64687;BME280;51113;53.646;-113.674;2024-03-25T03:36:36;93350.72;;;-4.74;78.09
64687;BME280;51113;53.646;-113.674;2024-03-25T03:39:03;93338.84;;;-4.74;77.80
64687;BME280;51113;53.646;-113.674;2024-03-25T03:41:29;93339.88;;;-4.83;79.52
64687;BME280;51113;53.646;-113.674;2024-03-25T03:43:56;93339.81;;;-4.90;78.69
64687;BME280;51113;53.646;-113.674;2024-03-25T03:46:22;93335.88;;;-4.92;78.96
64687;BME280;51113;53.646;-113.674;2024-03-25T03:48:49;93343.28;;;-4.91;78.62
64687;BME280;51113;53.646;-113.674;2024-03-25T03:51:15;93335.25;;;-4.94;79.08
64687;BME280;51113;53.646;-113.674;2024-03-25T03:53:42;93343.28;;;-4.91;79.97
64687;BME280;51113;53.646;-113.674;2024-03-25T03:56:08;93336.84;;;-4.93;79.15
64687;BME280;51113;53.646;-113.674;2024-03-25T03:58:35;93342.94;;;-4.88;79.08
64687;BME280;51113;53.646;-113.674;2024-03-25T04:01:02;93336.47;;;-4.90;78.84
64687;BME280;51113;53.646;-113.674;2024-03-25T04:03:30;93338.22;;;-4.91;78.57
64687;BME280;51113;53.646;-113.674;2024-03-25T04:05:57;93336.91;;;-4.86;79.26
64687;BME280;51113;53.646;-113.674;2024-03-25T04:08:23;93340.25;;;-4.86;78.85
64687;BME280;51113;53.646;-113.674;2024-03-25T04:10:50;93337.63;;;-4.93;80.17
64687;BME280;51113;53.646;-113.674;2024-03-25T04:13:16;93345.91;;;-4.84;80.25
64687;BME280;51113;53.646;-113.674;2024-03-25T04:15:43;93337.53;;;-4.84;79.67
64687;BME280;51113;53.646;-113.674;2024-03-25T04:18:09;93338.31;;;-4.84;79.81
64687;BME280;51113;53.646;-113.674;2024-03-25T04:20:38;93346.53;;;-4.82;79.66
64687;BME280;51113;53.646;-113.674;2024-03-25T04:23:05;93345.22;;;-4.78;80.54
64687;BME280;51113;53.646;-113.674;2024-03-25T04:25:34;93336.03;;;-4.79;79.89
64687;BME280;51113;53.646;-113.674;2024-03-25T04:28:04;93335.09;;;-4.78;79.79
64687;BME280;51113;53.646;-113.674;2024-03-25T04:30:32;93342.69;;;-4.78;79.63
64687;BME280;51113;53.646;-113.674;2024-03-25T04:33:00;93337.44;;;-4.76;80.25
64687;BME280;51113;53.646;-113.674;2024-03-25T04:35:26;93334.56;;;-4.73;79.47
64687;BME280;51113;53.646;-113.674;2024-03-25T04:37:53;93336.47;;;-4.75;79.97
64687;BME280;51113;53.646;-113.674;2024-03-25T04:40:23;93334.13;;;-4.77;80.93
64687;BME280;51113;53.646;-113.674;2024-03-25T04:42:49;93338.66;;;-4.72;79.12
64687;BME280;51113;53.646;-113.674;2024-03-25T04:45:16;93330.63;;;-4.76;80.72
64687;BME280;51113;53.646;-113.674;2024-03-25T04:47:43;93327.94;;;-4.74;79.90
64687;BME280;51113;53.646;-113.674;2024-03-25T04:50:10;93326.19;;;-4.74;80.67
64687;BME280;51113;53.646;-113.674;2024-03-25T04:52:36;93327.75;;;-4.73;79.83
64687;BME280;51113;53.646;-113.674;2024-03-25T04:55:03;93325.22;;;-4.73;79.38
64687;BME280;51113;53.646;-113.674;2024-03-25T04:57:30;93306.63;;;-4.80;78.97
64687;BME280;51113;53.646;-113.674;2024-03-25T04:59:56;93319.38;;;-4.73;79.76
64687;BME280;51113;53.646;-113.674;2024-03-25T05:02:22;93316.22;;;-4.75;79.44
64687;BME280;51113;53.646;-113.674;2024-03-25T05:04:49;93318.75;;;-4.75;78.88
64687;BME280;51113;53.646;-113.674;2024-03-25T05:07:15;93320.31;;;-4.74;78.98
64687;BME280;51113;53.646;-113.674;2024-03-25T05:09:42;93316.84;;;-4.73;78.68
64687;BME280;51113;53.646;-113.674;2024-03-25T05:12:09;93313.69;;;-4.75;79.13
64687;BME280;51113;53.646;-113.674;2024-03-25T05:14:36;93302.69;;;-4.82;78.61
64687;BME280;51113;53.646;-113.674;2024-03-25T05:17:03;93318.50;;;-4.80;78.83
64687;BME280;51113;53.646;-113.674;2024-03-25T05:19:30;93312.66;;;-4.81;79.09
64687;BME280;51113;53.646;-113.674;2024-03-25T05:21:57;93305.41;;;-4.84;79.24
64687;BME280;51113;53.646;-113.674;2024-03-25T05:24:23;93310.28;;;-4.82;79.37
64687;BME280;51113;53.646;-113.674;2024-03-25T05:26:50;93302.09;;;-4.84;79.28
64687;BME280;51113;53.646;-113.674;2024-03-25T05:29:17;93310.47;;;-4.84;79.37
64687;BME280;51113;53.646;-113.674;2024-03-25T05:31:57;93305.06;;;-4.81;79.76
64687;BME280;51113;53.646;-113.674;2024-03-25T05:34:25;93298.94;;;-4.86;79.58
64687;BME280;51113;53.646;-113.674;2024-03-25T05:36:52;93301.72;;;-4.81;79.36
64687;BME280;51113;53.646;-113.674;2024-03-25T05:39:18;93302.88;;;-4.84;79.75
64687;BME280;51113;53.646;-113.674;2024-03-25T05:41:46;93307.94;;;-4.84;79.81
64687;BME280;51113;53.646;-113.674;2024-03-25T05:44:13;93304.78;;;-4.86;80.55
64687;BME280;51113;53.646;-113.674;2024-03-25T05:46:40;93297.03;;;-4.84;80.13
64687;BME280;51113;53.646;-113.674;2024-03-25T05:49:06;93297.97;;;-4.85;80.70
64687;BME280;51113;53.646;-113.674;2024-03-25T05:51:33;93298.34;;;-4.89;81.13
64687;BME280;51113;53.646;-113.674;2024-03-25T05:54:00;93295.03;;;-4.89;80.96
64687;BME280;51113;53.646;-113.674;2024-03-25T05:56:27;93295.03;;;-4.89;82.16
64687;BME280;51113;53.646;-113.674;2024-03-25T05:58:57;93301.56;;;-4.95;82.25
64687;BME280;51113;53.646;-113.674;2024-03-25T06:01:24;93290.22;;;-4.99;82.71
64687;BME280;51113;53.646;-113.674;2024-03-25T06:03:50;93301.47;;;-5.01;82.34
64687;BME280;51113;53.646;-113.674;2024-03-25T06:06:17;93302.09;;;-4.99;82.87
64687;BME280;51113;53.646;-113.674;2024-03-25T06:08:44;93298.00;;;-5.00;82.57
64687;BME280;51113;53.646;-113.674;2024-03-25T06:11:11;93304.63;;;-4.99;82.47
64687;BME280;51113;53.646;-113.674;2024-03-25T06:13:37;93307.31;;;-5.01;82.45
64687;BME280;51113;53.646;-113.674;2024-03-25T06:16:04;93305.94;;;-5.03;82.41
64687;BME280;51113;53.646;-113.674;2024-03-25T06:18:30;93305.16;;;-5.04;82.96
64687;BME280;51113;53.646;-113.674;2024-03-25T06:20:57;93295.53;;;-5.08;83.16
64687;BME280;51113;53.646;-113.674;2024-03-25T06:23:25;93290.84;;;-5.11;83.64
64687;BME280;51113;53.646;-113.674;2024-03-25T06:25:52;93295.91;;;-5.11;83.37
64687;BME280;51113;53.646;-113.674;2024-03-25T06:28:19;93286.56;;;-5.11;83.86
64687;BME280;51113;53.646;-113.674;2024-03-25T06:30:47;93287.50;;;-5.12;84.44
64687;BME280;51113;53.646;-113.674;2024-03-25T06:33:32;93293.72;;;-5.14;83.13
64687;BME280;51113;53.646;-113.674;2024-03-25T06:36:18;93291.19;;;-5.14;82.85
64687;BME280;51113;53.646;-113.674;2024-03-25T06:38:45;93287.06;;;-5.15;82.82
64687;BME280;51113;53.646;-113.674;2024-03-25T06:41:12;93287.44;;;-5.18;82.49
64687;BME280;51113;53.646;-113.674;2024-03-25T06:43:39;93294.31;;;-5.27;82.81
64687;BME280;51113;53.646;-113.674;2024-03-25T06:46:06;93281.06;;;-5.29;81.76
64687;BME280;51113;53.646;-113.674;2024-03-25T06:48:33;93287.75;;;-5.36;81.62
64687;BME280;51113;53.646;-113.674;2024-03-25T06:51:03;93283.50;;;-5.36;81.80
64687;BME280;51113;53.646;-113.674;2024-03-25T06:53:29;93276.25;;;-5.39;81.50
64687;BME280;51113;53.646;-113.674;2024-03-25T06:55:58;93262.44;;;-5.51;81.85
64687;BME280;51113;53.646;-113.674;2024-03-25T06:58:26;93275.63;;;-5.41;81.94
64687;BME280;51113;53.646;-113.674;2024-03-25T07:00:53;93268.31;;;-5.50;82.25
64687;BME280;51113;53.646;-113.674;2024-03-25T07:03:21;93277.28;;;-5.48;81.51
64687;BME280;51113;53.646;-113.674;2024-03-25T07:05:49;93263.06;;;-5.49;81.85
64687;BME280;51113;53.646;-113.674;2024-03-25T07:08:16;93265.78;;;-5.50;81.77
64687;BME280;51113;53.646;-113.674;2024-03-25T07:10:43;93251.63;;;-5.60;81.48
64687;BME280;51113;53.646;-113.674;2024-03-25T07:13:10;93260.78;;;-5.59;82.36
64687;BME280;51113;53.646;-113.674;2024-03-25T07:15:37;93259.13;;;-5.51;82.41
64687;BME280;51113;53.646;-113.674;2024-03-25T07:18:03;93265.31;;;-5.54;82.35
64687;BME280;51113;53.646;-113.674;2024-03-25T07:20:31;93255.56;;;-5.57;81.48
64687;BME280;51113;53.646;-113.674;2024-03-25T07:22:58;93257.91;;;-5.56;82.74
64687;BME280;51113;53.646;-113.674;2024-03-25T07:25:25;93261.22;;;-5.55;83.36
64687;BME280;51113;53.646;-113.674;2024-03-25T07:27:52;93251.47;;;-5.58;82.36
64687;BME280;51113;53.646;-113.674;2024-03-25T07:30:19;93251.81;;;-5.61;82.54
64687;BME280;51113;53.646;-113.674;2024-03-25T07:32:45;93237.16;;;-5.66;82.50
64687;BME280;51113;53.646;-113.674;2024-03-25T07:35:12;93249.28;;;-5.61;82.53
64687;BME280;51113;53.646;-113.674;2024-03-25T07:37:38;93253.47;;;-5.54;83.40
64687;BME280;51113;53.646;-113.674;2024-03-25T07:40:05;93254.09;;;-5.51;82.81
64687;BME280;51113;53.646;-113.674;2024-03-25T07:42:32;93246.66;;;-5.53;83.62
64687;BME280;51113;53.646;-113.674;2024-03-25T07:44:59;93249.19;;;-5.53;84.15
64687;BME280;51113;53.646;-113.674;2024-03-25T07:47:26;93245.09;;;-5.54;84.23
64687;BME280;51113;53.646;-113.674;2024-03-25T07:49:52;93243.69;;;-5.57;83.50
64687;BME280;51113;53.646;-113.674;2024-03-25T07:52:19;93243.88;;;-5.58;83.11
64687;BME280;51113;53.646;-113.674;2024-03-25T07:54:45;93236.97;;;-5.64;83.13
64687;BME280;51113;53.646;-113.674;2024-03-25T07:57:12;93241.75;;;-5.69;82.17
64687;BME280;51113;53.646;-113.674;2024-03-25T07:59:38;93243.50;;;-5.70;82.94
64687;BME280;51113;53.646;-113.674;2024-03-25T08:02:05;93242.56;;;-5.69;82.93
64687;BME280;51113;53.646;-113.674;2024-03-25T08:04:31;93244.81;;;-5.74;82.11
64687;BME280;51113;53.646;-113.674;2024-03-25T08:06:58;93250.03;;;-5.75;82.01
64687;BME280;51113;53.646;-113.674;2024-03-25T08:09:24;93231.81;;;-5.86;80.96
64687;BME280;51113;53.646;-113.674;2024-03-25T08:11:51;93237.56;;;-5.77;81.48
64687;BME280;51113;53.646;-113.674;2024-03-25T08:14:17;93244.19;;;-5.76;80.48
64687;BME280;51113;53.646;-113.674;2024-03-25T08:16:44;93252.75;;;-5.77;80.78
64687;BME280;51113;53.646;-113.674;2024-03-25T08:19:10;93233.38;;;-5.84;80.67
64687;BME280;51113;53.646;-113.674;2024-03-25T08:21:37;93231.72;;;-5.77;79.82
64687;BME280;51113;53.646;-113.674;2024-03-25T08:24:04;93241.66;;;-5.76;80.97
64687;BME280;51113;53.646;-113.674;2024-03-25T08:26:30;93232.16;;;-5.74;81.27
64687;BME280;51113;53.646;-113.674;2024-03-25T08:28:57;93231.72;;;-5.77;81.16
64687;BME280;51113;53.646;-113.674;2024-03-25T08:31:24;93233.91;;;-5.74;80.70
64687;BME280;51113;53.646;-113.674;2024-03-25T08:33:50;93236.44;;;-5.74;81.43
64687;BME280;51113;53.646;-113.674;2024-03-25T08:36:17;93239.75;;;-5.74;82.10
64687;BME280;51113;53.646;-113.674;2024-03-25T08:38:46;93234.25;;;-5.77;81.44
64687;BME280;51113;53.646;-113.674;2024-03-25T08:41:13;93222.41;;;-5.77;81.66
64687;BME280;51113;53.646;-113.674;2024-03-25T08:43:41;93238.97;;;-5.74;81.47
64687;BME280;51113;53.646;-113.674;2024-03-25T08:46:07;93232.34;;;-5.75;82.05
64687;BME280;51113;53.646;-113.674;2024-03-25T08:48:34;93236.16;;;-5.79;81.36
64687;BME280;51113;53.646;-113.674;2024-03-25T08:51:00;93243.13;;;-5.81;82.41
64687;BME280;51113;53.646;-113.674;2024-03-25T08:53:27;93247.41;;;-5.82;81.73
64687;BME280;51113;53.646;-113.674;2024-03-25T08:55:53;93231.72;;;-5.92;81.60
64687;BME280;51113;53.646;-113.674;2024-03-25T08:58:20;93233.19;;;-5.83;82.31
64687;BME280;51113;53.646;-113.674;2024-03-25T09:00:46;93238.09;;;-5.81;82.94
64687;BME280;51113;53.646;-113.674;2024-03-25T09:03:13;93240.78;;;-5.83;82.18
64687;BME280;51113;53.646;-113.674;2024-03-25T09:05:39;93228.84;;;-5.89;82.50
64687;BME280;51113;53.646;-113.674;2024-03-25T09:08:06;93226.41;;;-5.82;81.70
64687;BME280;51113;53.646;-113.674;2024-03-25T09:10:32;93233.97;;;-5.82;82.38
64687;BME280;51113;53.646;-113.674;2024-03-25T09:13:17;93232.59;;;-5.85;82.77
64687;BME280;51113;53.646;-113.674;2024-03-25T09:15:44;93228.31;;;-5.84;82.36
64687;BME280;51113;53.646;-113.674;2024-03-25T09:18:10;93231.81;;;-5.86;82.35
64687;BME280;51113;53.646;-113.674;2024-03-25T09:20:37;93222.03;;;-5.89;82.28
64687;BME280;51113;53.646;-113.674;2024-03-25T09:23:03;93217.75;;;-5.88;82.09
64687;BME280;51113;53.646;-113.674;2024-03-25T09:25:30;93221.06;;;-5.88;82.47
64687;BME280;51113;53.646;-113.674;2024-03-25T09:27:56;93230.84;;;-5.84;82.84
64687;BME280;51113;53.646;-113.674;2024-03-25T09:30:23;93225.19;;;-5.87;81.97
64687;BME280;51113;53.646;-113.674;2024-03-25T09:32:49;93223.03;;;-5.90;82.46
64687;BME280;51113;53.646;-113.674;2024-03-25T09:35:16;93217.97;;;-5.90;82.78
64687;BME280;51113;53.646;-113.674;2024-03-25T09:37:43;93220.75;;;-5.84;82.45
64687;BME280;51113;53.646;-113.674;2024-03-25T09:40:09;93213.50;;;-5.88;83.09
64687;BME280;51113;53.646;-113.674;2024-03-25T09:45:09;93213.16;;;-5.84;82.28
64687;BME280;51113;53.646;-113.674;2024-03-25T09:47:39;93219.50;;;-5.89;82.51
64687;BME280;51113;53.646;-113.674;2024-03-25T09:50:10;93222.03;;;-5.89;82.37
64687;BME280;51113;53.646;-113.674;2024-03-25T09:52:39;93213.09;;;-5.91;82.49
64687;BME280;51113;53.646;-113.674;2024-03-25T09:55:06;93218.56;;;-5.88;82.41
64687;BME280;51113;53.646;-113.674;2024-03-25T09:57:34;93207.59;;;-5.95;83.14
64687;BME280;51113;53.646;-113.674;2024-03-25T10:00:01;93221.06;;;-5.88;82.44
64687;BME280;51113;53.646;-113.674;2024-03-25T10:02:30;93209.59;;;-5.90;82.34
64687;BME280;51113;53.646;-113.674;2024-03-25T10:04:58;93217.34;;;-5.92;82.66
64687;BME280;51113;53.646;-113.674;2024-03-25T10:07:25;93212.47;;;-5.93;82.20
64687;BME280;51113;53.646;-113.674;2024-03-25T10:09:51;93220.06;;;-5.93;81.71
64687;BME280;51113;53.646;-113.674;2024-03-25T10:12:18;93223.53;;;-5.94;82.38
64687;BME280;51113;53.646;-113.674;2024-03-25T10:14:46;93226.41;;;-5.97;81.92
64687;BME280;51113;53.646;-113.674;2024-03-25T10:17:13;93214.91;;;-6.00;81.76
64687;BME280;51113;53.646;-113.674;2024-03-25T10:19:40;93229.72;;;-5.97;82.08
64687;BME280;51113;53.646;-113.674;2024-03-25T10:22:08;93213.50;;;-6.02;81.49
64687;BME280;51113;53.646;-113.674;2024-03-25T10:24:42;93220.22;;;-5.95;81.56
64687;BME280;51113;53.646;-113.674;2024-03-25T10:27:22;93222.47;;;-6.00;80.71
64687;BME280;51113;53.646;-113.674;2024-03-25T10:29:53;93230.50;;;-5.96;81.30
64687;BME280;51113;53.646;-113.674;2024-03-25T10:32:21;93225.00;;;-6.00;81.00
64687;BME280;51113;53.646;-113.674;2024-03-25T10:34:51;93228.50;;;-6.01;81.48
64687;BME280;51113;53.646;-113.674;2024-03-25T10:37:18;93226.22;;;-5.96;80.74
64687;BME280;51113;53.646;-113.674;2024-03-25T10:39:49;93231.81;;;-6.00;81.22
64687;BME280;51113;53.646;-113.674;2024-03-25T10:42:20;93225.50;;;-6.04;81.72
64687;BME280;51113;53.646;-113.674;2024-03-25T10:44:47;93225.34;;;-6.03;81.30
64687;BME280;51113;53.646;-113.674;2024-03-25T10:47:20;93185.13;;;-6.27;81.24
64687;BME280;51113;53.646;-113.674;2024-03-25T10:49:58;93216.28;;;-5.97;80.79
64687;BME280;51113;53.646;-113.674;2024-03-25T10:52:26;93218.66;;;-5.96;82.01
64687;BME280;51113;53.646;-113.674;2024-03-25T10:54:56;93224.66;;;-5.97;82.04
64687;BME280;51113;53.646;-113.674;2024-03-25T10:57:23;93218.03;;;-5.98;81.71
64687;BME280;51113;53.646;-113.674;2024-03-25T10:59:50;93219.59;;;-5.97;81.84
64687;BME280;51113;53.646;-113.674;2024-03-25T11:02:18;93220.56;;;-5.98;81.52
64687;BME280;51113;53.646;-113.674;2024-03-25T11:04:45;93203.19;;;-6.15;81.83
64687;BME280;51113;53.646;-113.674;2024-03-25T11:07:15;93228.81;;;-6.04;81.47
64687;BME280;51113;53.646;-113.674;2024-03-25T11:09:42;93228.03;;;-6.04;81.41
64687;BME280;51113;53.646;-113.674;2024-03-25T11:12:12;93232.81;;;-6.09;82.33
64687;BME280;51113;53.646;-113.674;2024-03-25T11:14:39;93229.50;;;-6.10;82.63
64687;BME280;51113;53.646;-113.674;2024-03-25T11:17:16;93229.91;;;-6.21;81.42
64687;BME280;51113;53.646;-113.674;2024-03-25T11:19:43;93207.03;;;-6.42;81.45
64687;BME280;51113;53.646;-113.674;2024-03-25T11:22:11;93220.31;;;-6.26;82.46
64687;BME280;51113;53.646;-113.674;2024-03-25T11:24:38;93233.13;;;-6.27;81.66
64687;BME280;51113;53.646;-113.674;2024-03-25T11:27:09;93237.25;;;-6.34;80.70
64687;BME280;51113;53.646;-113.674;2024-03-25T11:29:36;93229.34;;;-6.31;81.58
64687;BME280;51113;53.646;-113.674;2024-03-25T11:32:06;93224.13;;;-6.30;81.57
64687;BME280;51113;53.646;-113.674;2024-03-25T11:34:35;93219.53;;;-6.26;81.63
64687;BME280;51113;53.646;-113.674;2024-03-25T11:37:02;93215.59;;;-6.29;81.00
64687;BME280;51113;53.646;-113.674;2024-03-25T11:39:28;93212.28;;;-6.29;80.79
64687;BME280;51113;53.646;-113.674;2024-03-25T11:41:55;93217.97;;;-6.27;81.11
64687;BME280;51113;53.646;-113.674;2024-03-25T11:44:22;93207.41;;;-6.31;80.47
64687;BME280;51113;53.646;-113.674;2024-03-25T11:46:50;93198.88;;;-6.30;81.58
64687;BME280;51113;53.646;-113.674;2024-03-25T11:49:21;93204.59;;;-6.36;80.30
64687;BME280;51113;53.646;-113.674;2024-03-25T11:51:48;93205.38;;;-6.35;81.14
64687;BME280;51113;53.646;-113.674;2024-03-25T11:54:14;93199.44;;;-6.42;81.04
64687;BME280;51113;53.646;-113.674;2024-03-25T11:56:41;93211.06;;;-6.33;82.11
64687;BME280;51113;53.646;-113.674;2024-03-25T11:59:09;93210.28;;;-6.34;82.35
64687;BME280;51113;53.646;-113.674;2024-03-25T12:01:38;93203.47;;;-6.33;81.81
64687;BME280;51113;53.646;-113.674;2024-03-25T12:04:18;93202.34;;;-6.31;81.39
64687;BME280;51113;53.646;-113.674;2024-03-25T12:06:45;93202.97;;;-6.29;82.33
64687;BME280;51113;53.646;-113.674;2024-03-25T12:09:12;93202.34;;;-6.31;81.77
64687;BME280;51113;53.646;-113.674;2024-03-25T12:11:57;93201.56;;;-6.31;81.43
64687;BME280;51113;53.646;-113.674;2024-03-25T12:14:24;93204.88;;;-6.31;81.36
64687;BME280;51113;53.646;-113.674;2024-03-25T12:16:56;93190.34;;;-6.29;81.15
64687;BME280;51113;53.646;-113.674;2024-03-25T12:19:26;93197.47;;;-6.32;81.24
64687;BME280;51113;53.646;-113.674;2024-03-25T12:22:00;93194.78;;;-6.31;82.12
64687;BME280;51113;53.646;-113.674;2024-03-25T12:24:27;93189.13;;;-6.33;82.19
64687;BME280;51113;53.646;-113.674;2024-03-25T12:26:53;93190.69;;;-6.32;82.11
64687;BME280;51113;53.646;-113.674;2024-03-25T12:29:20;93199.56;;;-6.36;82.82
64687;BME280;51113;53.646;-113.674;2024-03-25T12:31:56;93194.06;;;-6.39;83.15
64687;BME280;51113;53.646;-113.674;2024-03-25T12:34:26;93198.50;;;-6.41;83.22